Terminal Aerodrome Forecast
Issued by NWS Wilmington, OH

Home | Current Version | Previous Version | Text Only | Print | Product List | Glossary On
Versions: 1 2 3 4 5 6 7 8 9 10 11 12 13 14 15 16 17 18 19 20 21 22 23 24 25
000
FTUS41 KILN 030500
TAFCMH
TAF
KCMH 030527Z 0306/0406 00000KT P6SM BKN250
     FM030800 00000KT 4SM BR SCT250
     FM031400 20005KT P6SM SCT035
     FM040000 VRB03KT P6SM SKC=

USA.gov is the U.S. government's official web portal to all federal, state and local government web resources and services.